Terminal Aerodrome Forecast
Issued by NWS Spokane, WA

Home | Current Version | Previous Version | Text Only | Print | Product List | Glossary On
Versions: 1 2 3 4 5 6 7 8 9 10 11 12 13 14 15 16 17 18 19 20 21 22 23 24 25 26 27 28 29 30
000
FTUS46 KOTX 280522
TAFLWS
TAF
KLWS 280522Z 2806/2906 20006KT P6SM SCT060 SCT100 BKN250
     FM280700 15003KT P6SM SKC
     FM282200 33006KT P6SM BKN060 OVC150
     FM290400 14005KT P6SM BKN050 OVC100=

USA.gov is the U.S. government's official web portal to all federal, state and local government web resources and services.